createdAt,value
2019-02-06T00:03:20.854Z,0.90
2019-02-06T00:08:24.364Z,0.80
2019-02-06T00:13:27.894Z,0.70
2019-02-06T00:18:31.346Z,0.90
2019-02-06T00:23:34.835Z,0.80
2019-02-06T00:28:38.317Z,0.75
2019-02-06T00:33:41.804Z,0.90
2019-02-06T00:38:45.295Z,0.80
2019-02-06T00:43:48.782Z,0.70
2019-02-06T00:48:52.906Z,0.87
2019-02-06T00:53:56.397Z,0.62
2019-02-06T00:58:59.886Z,0.80
2019-02-06T01:04:03.368Z,0.80
2019-02-06T01:09:08.590Z,0.80
2019-02-06T01:14:12.082Z,1.00
2019-02-06T01:19:15.580Z,0.57
2019-02-06T01:24:19.065Z,0.62
2019-02-06T01:29:22.553Z,1.00
2019-02-06T01:34:26.325Z,1.10
2019-02-06T01:39:29.809Z,0.60
2019-02-06T01:44:33.296Z,1.00
2019-02-06T01:49:36.781Z,0.83
2019-02-06T01:54:40.269Z,0.80
2019-02-06T01:59:44.124Z,0.85
2019-02-06T02:04:47.609Z,0.90
2019-02-06T02:09:51.291Z,0.80
2019-02-06T02:14:54.754Z,1.00
2019-02-06T02:19:58.240Z,0.93
2019-02-06T02:25:01.905Z,0.80
2019-02-06T02:30:09.487Z,0.80
2019-02-06T02:35:12.979Z,0.80
2019-02-06T02:40:16.545Z,0.80
2019-02-06T02:45:20.595Z,0.83
2019-02-06T02:50:24.286Z,0.77
2019-02-06T02:55:27.767Z,0.90
2019-02-06T03:00:44.503Z,0.73
2019-02-06T03:05:47.988Z,0.70
2019-02-06T03:10:51.481Z,0.65
2019-02-06T03:15:54.973Z,0.60
2019-02-06T03:20:58.464Z,0.97
2019-02-06T03:26:02.126Z,0.70
2019-02-06T03:31:05.874Z,0.87
2019-02-06T03:36:09.545Z,0.80
2019-02-06T03:41:13.039Z,0.70
2019-02-06T03:46:16.522Z,0.70
2019-02-06T03:51:20.385Z,1.00
2019-02-06T03:56:23.893Z,0.80
2019-02-06T04:01:27.380Z,0.80
2019-02-06T04:06:30.860Z,0.80
2019-02-06T04:11:34.349Z,1.00
2019-02-06T04:16:38.113Z,0.97
2019-02-06T04:21:41.597Z,0.80
2019-02-06T04:26:45.085Z,0.73
2019-02-06T04:31:48.558Z,1.00
2019-02-06T04:36:52.046Z,0.80
2019-02-06T04:41:55.920Z,0.90
2019-02-06T04:46:59.423Z,0.77
2019-02-06T04:52:02.918Z,0.90
2019-02-06T04:57:09.448Z,1.13
2019-02-06T05:02:11.591Z,1.10
2019-02-06T05:07:19.488Z,0.67
2019-02-06T05:12:20.651Z,0.80
2019-02-06T05:17:24.122Z,0.63
2019-02-06T05:22:27.613Z,0.97
2019-02-06T05:27:31.086Z,0.83
2019-02-06T05:32:34.933Z,0.80
2019-02-06T05:37:38.405Z,0.70
2019-02-06T05:42:41.887Z,1.00
2019-02-06T05:47:45.357Z,0.85
2019-02-06T05:52:48.839Z,1.10
2019-02-06T05:57:52.305Z,0.73
2019-02-06T06:02:55.784Z,0.70
2019-02-06T06:07:59.255Z,0.77
2019-02-06T06:13:03.102Z,0.70
2019-02-06T06:18:06.574Z,0.70
2019-02-06T06:23:10.038Z,0.70
2019-02-06T06:28:13.513Z,0.90
2019-02-06T06:33:16.983Z,0.98
2019-02-06T06:38:20.448Z,0.93
2019-02-06T06:43:23.924Z,0.70
2019-02-06T06:48:27.475Z,0.80
2019-02-06T06:53:30.943Z,0.70
2019-02-06T06:58:34.420Z,0.72
2019-02-06T07:03:37.894Z,0.80
2019-02-06T07:08:41.366Z,1.23
2019-02-06T07:13:44.832Z,0.45
2019-02-06T07:18:48.301Z,0.80
2019-02-06T07:23:51.774Z,0.77
2019-02-06T07:28:55.244Z,0.90
2019-02-06T07:33:59.220Z,0.98
2019-02-06T07:39:02.699Z,0.72
2019-02-06T07:44:06.350Z,0.70
2019-02-06T07:49:09.831Z,4.17
2019-02-06T07:54:13.312Z,12.43
2019-02-06T07:59:16.791Z,12.58
2019-02-06T08:04:20.276Z,10.17
2019-02-06T08:09:24.022Z,9.95
2019-02-06T08:14:27.497Z,8.70
2019-02-06T08:19:30.969Z,7.10
2019-02-06T08:24:34.444Z,5.40
2019-02-06T08:29:37.923Z,4.83
2019-02-06T08:34:41.774Z,4.80
2019-02-06T08:39:45.247Z,3.90
2019-02-06T08:44:48.722Z,3.23
2019-02-06T08:49:52.273Z,3.40
2019-02-06T08:54:55.820Z,2.80
2019-02-06T08:59:59.668Z,3.37
2019-02-06T09:05:03.317Z,2.40
2019-02-06T09:10:09.916Z,2.83
2019-02-06T09:15:14.135Z,2.23
2019-02-06T09:20:22.715Z,2.27
2019-02-06T09:25:27.827Z,2.00
2019-02-06T09:30:33.988Z,2.00
2019-02-06T09:35:37.961Z,2.25
2019-02-06T09:40:41.488Z,1.90
2019-02-06T09:45:44.961Z,1.93
2019-02-06T09:50:48.441Z,2.00
2019-02-06T09:55:53.323Z,6.77
2019-02-06T10:00:56.975Z,5.03
2019-02-06T10:06:00.583Z,4.10
2019-02-06T10:11:04.179Z,13.10
2019-02-06T10:16:07.663Z,13.95
2019-02-06T10:21:11.139Z,7.05
2019-02-06T10:26:14.787Z,7.97
2019-02-06T10:31:18.264Z,6.77
2019-02-06T10:36:21.761Z,5.63
2019-02-06T10:41:25.251Z,4.60
2019-02-06T10:46:28.745Z,4.10
2019-02-06T10:51:32.225Z,4.17
2019-02-06T10:56:35.703Z,4.87
2019-02-06T11:01:39.246Z,3.97
2019-02-06T11:06:42.866Z,4.07
2019-02-06T11:11:46.338Z,3.53
2019-02-06T11:16:49.822Z,4.10
2019-02-06T11:21:53.297Z,3.62
2019-02-06T11:26:56.773Z,3.90
2019-02-06T11:32:00.527Z,3.53
2019-02-06T11:37:04.009Z,2.83
2019-02-06T11:42:07.540Z,3.35
2019-02-06T11:47:11.018Z,3.10
2019-02-06T11:52:14.496Z,2.12
2019-02-06T11:57:18.251Z,2.67
2019-02-06T12:02:23.361Z,2.70
2019-02-06T12:07:26.845Z,3.23
2019-02-06T12:12:30.322Z,3.17
2019-02-06T12:17:33.807Z,3.03
2019-02-06T12:22:37.655Z,2.67
2019-02-06T12:27:41.286Z,3.00
2019-02-06T12:32:51.932Z,2.35
2019-02-06T12:37:50.055Z,2.73
2019-02-06T12:42:53.528Z,2.40
2019-02-06T12:47:57.076Z,2.33
2019-02-06T12:53:00.542Z,2.40
2019-02-06T12:58:05.148Z,2.13
2019-02-06T13:03:09.147Z,2.50
2019-02-06T13:08:12.651Z,2.03
2019-02-06T13:13:16.097Z,1.87
2019-02-06T13:18:19.570Z,2.20
2019-02-06T13:23:23.118Z,1.87
2019-02-06T13:28:26.590Z,2.30
2019-02-06T13:33:30.066Z,2.17
2019-02-06T13:38:33.538Z,2.07
2019-02-06T13:43:37.007Z,2.20
2019-02-06T13:48:40.483Z,2.07
2019-02-06T13:53:43.957Z,1.72
2019-02-06T13:58:47.430Z,2.10
2019-02-06T14:03:50.907Z,1.93
2019-02-06T14:08:54.378Z,1.90
2019-02-06T14:13:57.854Z,1.72
2019-02-06T14:19:01.325Z,1.42
2019-02-06T14:24:13.858Z,2.07
2019-02-06T14:29:26.019Z,1.60
2019-02-06T14:34:39.510Z,1.60
2019-02-06T14:40:13.598Z,1.90
2019-02-06T14:45:26.087Z,1.80
2019-02-06T14:50:41.810Z,1.60
2019-02-06T14:56:16.123Z,2.20
2019-02-06T15:01:52.913Z,1.40
2019-02-06T15:06:59.464Z,1.70
2019-02-06T15:12:14.962Z,1.70
2019-02-06T15:17:33.503Z,1.80
2019-02-06T15:22:46.215Z,1.87
2019-02-06T15:28:04.789Z,2.00
2019-02-06T15:33:20.349Z,1.60
2019-02-06T15:38:26.966Z,1.63
2019-02-06T15:43:45.438Z,1.67
2019-02-06T15:49:12.764Z,1.50
2019-02-06T15:54:19.610Z,1.35
2019-02-06T15:59:44.142Z,1.40
2019-02-06T16:04:54.932Z,1.55
2019-02-06T16:10:34.666Z,1.27
2019-02-06T16:15:59.482Z,1.37
2019-02-06T16:21:11.584Z,1.47
2019-02-06T16:26:34.537Z,1.50
2019-02-06T16:31:53.332Z,1.57
2019-02-06T16:37:11.707Z,1.93
2019-02-06T16:42:27.154Z,1.30
2019-02-06T16:47:45.618Z,1.47
2019-02-06T16:52:53.805Z,1.55
2019-02-06T16:58:03.223Z,1.57
2019-02-06T17:03:19.009Z,1.10
2019-02-06T17:08:44.925Z,1.70
2019-02-06T17:14:09.692Z,2.22
2019-02-06T17:19:37.547Z,2.70
2019-02-06T17:24:52.210Z,3.80
2019-02-06T17:30:33.654Z,4.70
2019-02-06T17:35:58.325Z,7.03
2019-02-06T17:41:07.385Z,7.23
2019-02-06T17:46:13.911Z,5.90
2019-02-06T17:51:40.319Z,7.03
2019-02-06T17:56:43.800Z,6.53
2019-02-06T18:01:47.346Z,6.20
2019-02-06T18:06:50.834Z,6.53
2019-02-06T18:11:54.316Z,6.03
2019-02-06T18:16:57.929Z,5.53
2019-02-06T18:22:01.472Z,5.50
2019-02-06T18:27:05.894Z,5.37
2019-02-06T18:32:09.972Z,4.70
2019-02-06T18:37:13.896Z,5.40
2019-02-06T18:42:17.518Z,5.12
2019-02-06T18:47:22.767Z,4.37
2019-02-06T18:52:26.383Z,4.87
2019-02-06T18:57:30.325Z,4.73
2019-02-06T19:02:34.155Z,4.10
2019-02-06T19:07:38.509Z,5.05
2019-02-06T19:12:48.138Z,4.17
2019-02-06T19:17:48.138Z,4.57
2019-02-06T19:22:52.022Z,4.33
2019-02-06T19:27:56.492Z,4.65
2019-02-06T19:33:00.766Z,3.67
2019-02-06T19:38:05.304Z,4.75
2019-02-06T19:43:09.845Z,4.13
2019-02-06T19:48:17.692Z,3.98
2019-02-06T19:53:21.375Z,3.73
2019-02-06T19:58:25.510Z,3.93
2019-02-06T20:03:30.042Z,3.53
2019-02-06T20:08:34.184Z,4.03
2019-02-06T20:13:38.334Z,3.67
2019-02-06T20:18:42.745Z,4.37
2019-02-06T20:23:46.983Z,3.98
2019-02-06T20:28:51.115Z,3.65
2019-02-06T20:33:55.540Z,3.52
2019-02-06T20:39:00.105Z,3.87
2019-02-06T20:44:04.642Z,4.03
2019-02-06T20:49:08.896Z,3.07
2019-02-06T20:54:12.831Z,3.07
2019-02-06T20:59:17.365Z,3.60
2019-02-06T21:04:20.972Z,3.75
2019-02-06T21:09:25.842Z,2.70
2019-02-06T21:14:29.577Z,2.95
2019-02-06T21:19:33.431Z,3.42
2019-02-06T21:24:36.896Z,3.63
2019-02-06T21:29:40.370Z,4.20
2019-02-06T21:34:43.982Z,2.83
2019-02-06T21:39:47.525Z,2.75
2019-02-06T21:44:50.997Z,2.87
2019-02-06T21:49:54.470Z,3.00
2019-02-06T21:54:57.943Z,3.22
2019-02-06T22:00:01.430Z,2.67
2019-02-06T22:05:07.210Z,2.92
2019-02-06T22:10:16.278Z,2.87
2019-02-06T22:15:28.285Z,2.83
2019-02-06T22:20:32.103Z,3.30
2019-02-06T22:25:35.578Z,2.55
2019-02-06T22:30:39.054Z,2.80
2019-02-06T22:35:42.702Z,2.90
2019-02-06T22:40:46.192Z,2.30
2019-02-06T22:45:49.668Z,2.40
2019-02-06T22:50:53.136Z,3.00
2019-02-06T22:55:56.624Z,2.40
2019-02-06T23:01:11.909Z,2.50
2019-02-06T23:06:15.555Z,2.47
2019-02-06T23:11:19.484Z,2.77
2019-02-06T23:16:23.168Z,2.40
2019-02-06T23:21:26.640Z,2.63
2019-02-06T23:26:30.289Z,2.70
2019-02-06T23:31:33.829Z,2.27
2019-02-06T23:36:37.368Z,2.40
2019-02-06T23:41:40.843Z,2.72
2019-02-06T23:46:44.312Z,2.63
2019-02-06T23:51:47.786Z,2.40
2019-02-06T23:56:51.253Z,2.70
